sensor_id;sensor_type;location;lat;lon;timestamp;temperature;humidity
57088;DHT22;42965;52.846;6.614;2023-03-14T00:01:08;9.90;99.90
57088;DHT22;42965;52.846;6.614;2023-03-14T00:03:35;9.90;99.90
57088;DHT22;42965;52.846;6.614;2023-03-14T00:06:03;10.00;99.90
57088;DHT22;42965;52.846;6.614;2023-03-14T00:08:29;10.00;99.90
57088;DHT22;42965;52.846;6.614;2023-03-14T00:10:56;10.10;99.90
57088;DHT22;42965;52.846;6.614;2023-03-14T00:13:24;10.10;99.90
57088;DHT22;42965;52.846;6.614;2023-03-14T00:15:51;10.20;99.90
57088;DHT22;42965;52.846;6.614;2023-03-14T00:18:17;10.20;99.90
57088;DHT22;42965;52.846;6.614;2023-03-14T00:20:45;10.20;99.90
57088;DHT22;42965;52.846;6.614;2023-03-14T00:23:12;10.30;99.90
57088;DHT22;42965;52.846;6.614;2023-03-14T00:25:38;10.30;99.90
57088;DHT22;42965;52.846;6.614;2023-03-14T00:28:05;10.20;99.90
57088;DHT22;42965;52.846;6.614;2023-03-14T00:30:31;10.20;99.90
57088;DHT22;42965;52.846;6.614;2023-03-14T00:32:58;10.20;99.90
57088;DHT22;42965;52.846;6.614;2023-03-14T00:35:24;10.30;99.90
57088;DHT22;42965;52.846;6.614;2023-03-14T00:37:53;10.30;99.90
57088;DHT22;42965;52.846;6.614;2023-03-14T00:40:20;10.40;99.90
57088;DHT22;42965;52.846;6.614;2023-03-14T00:42:52;10.30;99.90
57088;DHT22;42965;52.846;6.614;2023-03-14T00:45:19;10.30;99.90
57088;DHT22;42965;52.846;6.614;2023-03-14T00:47:45;10.30;99.90
57088;DHT22;42965;52.846;6.614;2023-03-14T00:50:13;10.30;99.90
57088;DHT22;42965;52.846;6.614;2023-03-14T00:52:41;10.30;99.90
57088;DHT22;42965;52.846;6.614;2023-03-14T00:55:08;10.30;99.90
57088;DHT22;42965;52.846;6.614;2023-03-14T00:57:35;10.30;99.90
57088;DHT22;42965;52.846;6.614;2023-03-14T01:00:01;10.40;99.90
57088;DHT22;42965;52.846;6.614;2023-03-14T01:02:32;10.40;99.90
57088;DHT22;42965;52.846;6.614;2023-03-14T01:04:59;10.40;99.90
57088;DHT22;42965;52.846;6.614;2023-03-14T01:07:37;10.40;99.90
57088;DHT22;42965;52.846;6.614;2023-03-14T01:10:06;10.40;99.90
57088;DHT22;42965;52.846;6.614;2023-03-14T01:12:38;10.50;99.90
57088;DHT22;42965;52.846;6.614;2023-03-14T01:15:05;10.50;99.90
57088;DHT22;42965;52.846;6.614;2023-03-14T01:17:35;10.40;99.90
57088;DHT22;42965;52.846;6.614;2023-03-14T01:20:04;10.40;99.90
57088;DHT22;42965;52.846;6.614;2023-03-14T01:22:32;10.40;99.90
57088;DHT22;42965;52.846;6.614;2023-03-14T01:24:58;10.40;99.90
57088;DHT22;42965;52.846;6.614;2023-03-14T01:27:24;10.40;99.90
57088;DHT22;42965;52.846;6.614;2023-03-14T01:29:54;10.40;99.90
57088;DHT22;42965;52.846;6.614;2023-03-14T01:32:24;10.50;99.90
57088;DHT22;42965;52.846;6.614;2023-03-14T01:34:52;10.50;99.90
57088;DHT22;42965;52.846;6.614;2023-03-14T01:37:19;10.50;99.90
57088;DHT22;42965;52.846;6.614;2023-03-14T01:39:47;10.60;99.90
57088;DHT22;42965;52.846;6.614;2023-03-14T01:42:16;10.60;99.90
57088;DHT22;42965;52.846;6.614;2023-03-14T01:44:59;10.60;99.90
57088;DHT22;42965;52.846;6.614;2023-03-14T01:47:29;10.60;99.90
57088;DHT22;42965;52.846;6.614;2023-03-14T01:49:57;10.50;99.90
57088;DHT22;42965;52.846;6.614;2023-03-14T01:52:31;10.50;99.90
57088;DHT22;42965;52.846;6.614;2023-03-14T01:55:06;10.40;99.90
57088;DHT22;42965;52.846;6.614;2023-03-14T01:57:37;10.40;99.90
57088;DHT22;42965;52.846;6.614;2023-03-14T02:00:17;10.40;99.90
57088;DHT22;42965;52.846;6.614;2023-03-14T02:02:48;10.30;99.90
57088;DHT22;42965;52.846;6.614;2023-03-14T02:05:38;10.30;99.90
57088;DHT22;42965;52.846;6.614;2023-03-14T02:08:14;10.30;99.90
57088;DHT22;42965;52.846;6.614;2023-03-14T02:10:52;10.30;99.90
57088;DHT22;42965;52.846;6.614;2023-03-14T02:13:36;10.40;99.90
57088;DHT22;42965;52.846;6.614;2023-03-14T02:16:21;10.30;99.90
57088;DHT22;42965;52.846;6.614;2023-03-14T02:22:35;10.20;99.90
57088;DHT22;42965;52.846;6.614;2023-03-14T02:28:00;10.40;99.90
57088;DHT22;42965;52.846;6.614;2023-03-14T02:30:30;10.40;99.90
57088;DHT22;42965;52.846;6.614;2023-03-14T02:33:04;10.40;99.90
57088;DHT22;42965;52.846;6.614;2023-03-14T02:35:39;10.50;99.90
57088;DHT22;42965;52.846;6.614;2023-03-14T02:40:44;10.30;99.90
57088;DHT22;42965;52.846;6.614;2023-03-14T02:43:12;10.30;99.90
57088;DHT22;42965;52.846;6.614;2023-03-14T02:45:50;10.30;99.90
57088;DHT22;42965;52.846;6.614;2023-03-14T02:48:33;10.20;99.90
57088;DHT22;42965;52.846;6.614;2023-03-14T02:51:02;10.10;99.90
57088;DHT22;42965;52.846;6.614;2023-03-14T02:53:36;10.00;99.90
57088;DHT22;42965;52.846;6.614;2023-03-14T02:56:09;10.00;99.90
57088;DHT22;42965;52.846;6.614;2023-03-14T02:58:37;9.90;99.90
57088;DHT22;42965;52.846;6.614;2023-03-14T03:01:18;9.90;99.90
57088;DHT22;42965;52.846;6.614;2023-03-14T03:03:45;9.90;99.90
57088;DHT22;42965;52.846;6.614;2023-03-14T03:06:11;9.90;99.90
57088;DHT22;42965;52.846;6.614;2023-03-14T03:08:45;9.90;99.90
57088;DHT22;42965;52.846;6.614;2023-03-14T03:11:12;9.80;99.90
57088;DHT22;42965;52.846;6.614;2023-03-14T03:13:38;9.80;99.90
57088;DHT22;42965;52.846;6.614;2023-03-14T03:16:06;9.80;99.90
57088;DHT22;42965;52.846;6.614;2023-03-14T03:18:34;9.70;99.90
57088;DHT22;42965;52.846;6.614;2023-03-14T03:21:01;9.70;99.90
57088;DHT22;42965;52.846;6.614;2023-03-14T03:23:28;9.60;99.90
57088;DHT22;42965;52.846;6.614;2023-03-14T03:25:54;9.60;99.90
57088;DHT22;42965;52.846;6.614;2023-03-14T03:28:21;9.60;99.90
57088;DHT22;42965;52.846;6.614;2023-03-14T03:30:48;9.50;99.90
57088;DHT22;42965;52.846;6.614;2023-03-14T03:33:15;9.50;99.90
57088;DHT22;42965;52.846;6.614;2023-03-14T03:35:45;9.50;99.90
57088;DHT22;42965;52.846;6.614;2023-03-14T03:38:15;9.50;99.90
57088;DHT22;42965;52.846;6.614;2023-03-14T03:40:43;9.50;99.90
57088;DHT22;42965;52.846;6.614;2023-03-14T03:43:10;9.50;99.90
57088;DHT22;42965;52.846;6.614;2023-03-14T03:45:39;9.50;99.90
57088;DHT22;42965;52.846;6.614;2023-03-14T03:48:06;9.60;99.90
57088;DHT22;42965;52.846;6.614;2023-03-14T03:50:32;9.60;99.90
57088;DHT22;42965;52.846;6.614;2023-03-14T03:52:59;9.50;99.90
57088;DHT22;42965;52.846;6.614;2023-03-14T03:55:26;9.50;99.90
57088;DHT22;42965;52.846;6.614;2023-03-14T03:57:54;9.40;99.90
57088;DHT22;42965;52.846;6.614;2023-03-14T04:00:20;9.40;99.90
57088;DHT22;42965;52.846;6.614;2023-03-14T04:02:48;9.40;99.90
57088;DHT22;42965;52.846;6.614;2023-03-14T04:05:17;9.40;99.90
57088;DHT22;42965;52.846;6.614;2023-03-14T04:07:53;9.50;99.90
57088;DHT22;42965;52.846;6.614;2023-03-14T04:10:23;9.40;99.90
57088;DHT22;42965;52.846;6.614;2023-03-14T04:13:09;9.40;99.90
57088;DHT22;42965;52.846;6.614;2023-03-14T04:15:38;9.40;99.90
57088;DHT22;42965;52.846;6.614;2023-03-14T04:18:11;9.40;99.90
57088;DHT22;42965;52.846;6.614;2023-03-14T04:20:37;9.40;99.90
57088;DHT22;42965;52.846;6.614;2023-03-14T04:23:04;9.40;99.90
57088;DHT22;42965;52.846;6.614;2023-03-14T04:25:35;9.40;99.90
57088;DHT22;42965;52.846;6.614;2023-03-14T04:28:04;9.40;99.90
57088;DHT22;42965;52.846;6.614;2023-03-14T04:30:31;9.40;99.90
57088;DHT22;42965;52.846;6.614;2023-03-14T04:33:18;9.40;99.90
57088;DHT22;42965;52.846;6.614;2023-03-14T04:35:54;9.20;99.90
57088;DHT22;42965;52.846;6.614;2023-03-14T04:38:20;9.10;99.90
57088;DHT22;42965;52.846;6.614;2023-03-14T04:40:48;9.10;99.90
57088;DHT22;42965;52.846;6.614;2023-03-14T04:43:16;9.00;99.90
57088;DHT22;42965;52.846;6.614;2023-03-14T04:45:48;9.00;99.90
57088;DHT22;42965;52.846;6.614;2023-03-14T04:48:15;8.90;99.90
57088;DHT22;42965;52.846;6.614;2023-03-14T04:50:43;8.90;99.90
57088;DHT22;42965;52.846;6.614;2023-03-14T04:53:09;8.90;99.90
57088;DHT22;42965;52.846;6.614;2023-03-14T04:55:38;8.90;99.90
57088;DHT22;42965;52.846;6.614;2023-03-14T04:58:04;8.90;99.90
57088;DHT22;42965;52.846;6.614;2023-03-14T05:00:31;8.90;99.90
57088;DHT22;42965;52.846;6.614;2023-03-14T05:02:57;8.90;99.90
57088;DHT22;42965;52.846;6.614;2023-03-14T05:05:33;8.90;99.90
57088;DHT22;42965;52.846;6.614;2023-03-14T05:08:02;8.90;99.90
57088;DHT22;42965;52.846;6.614;2023-03-14T05:10:56;8.90;99.90
57088;DHT22;42965;52.846;6.614;2023-03-14T05:13:54;9.00;99.90
57088;DHT22;42965;52.846;6.614;2023-03-14T05:16:26;9.00;99.90
57088;DHT22;42965;52.846;6.614;2023-03-14T05:19:11;9.00;99.90
57088;DHT22;42965;52.846;6.614;2023-03-14T05:21:58;9.10;99.90
57088;DHT22;42965;52.846;6.614;2023-03-14T05:24:37;9.10;99.90
57088;DHT22;42965;52.846;6.614;2023-03-14T05:27:12;9.10;99.90
57088;DHT22;42965;52.846;6.614;2023-03-14T05:29:59;9.10;99.90
57088;DHT22;42965;52.846;6.614;2023-03-14T05:32:46;9.10;99.90
57088;DHT22;42965;52.846;6.614;2023-03-14T05:35:19;9.10;99.90
57088;DHT22;42965;52.846;6.614;2023-03-14T05:38:12;9.10;99.90
57088;DHT22;42965;52.846;6.614;2023-03-14T05:41:05;9.00;99.90
57088;DHT22;42965;52.846;6.614;2023-03-14T05:43:51;9.00;99.90
57088;DHT22;42965;52.846;6.614;2023-03-14T05:46:31;9.00;99.90
57088;DHT22;42965;52.846;6.614;2023-03-14T05:49:18;8.90;99.90
57088;DHT22;42965;52.846;6.614;2023-03-14T05:52:27;8.90;99.90
57088;DHT22;42965;52.846;6.614;2023-03-14T05:55:22;8.80;99.90
57088;DHT22;42965;52.846;6.614;2023-03-14T05:58:23;8.80;99.90
57088;DHT22;42965;52.846;6.614;2023-03-14T06:01:26;8.70;99.90
57088;DHT22;42965;52.846;6.614;2023-03-14T06:04:35;8.70;99.90
57088;DHT22;42965;52.846;6.614;2023-03-14T06:07:01;8.70;99.90
57088;DHT22;42965;52.846;6.614;2023-03-14T06:09:27;8.70;99.90
57088;DHT22;42965;52.846;6.614;2023-03-14T06:11:57;8.70;99.90
57088;DHT22;42965;52.846;6.614;2023-03-14T06:14:24;8.70;99.90
57088;DHT22;42965;52.846;6.614;2023-03-14T06:16:51;8.70;99.90
57088;DHT22;42965;52.846;6.614;2023-03-14T06:19:22;8.70;99.90
57088;DHT22;42965;52.846;6.614;2023-03-14T06:21:49;8.70;99.90
57088;DHT22;42965;52.846;6.614;2023-03-14T06:24:16;8.60;99.90
57088;DHT22;42965;52.846;6.614;2023-03-14T06:26:55;8.70;99.90
57088;DHT22;42965;52.846;6.614;2023-03-14T06:29:22;8.70;99.90
57088;DHT22;42965;52.846;6.614;2023-03-14T06:31:48;8.70;99.90
57088;DHT22;42965;52.846;6.614;2023-03-14T06:34:17;8.70;99.90
57088;DHT22;42965;52.846;6.614;2023-03-14T06:36:48;8.70;99.90
57088;DHT22;42965;52.846;6.614;2023-03-14T06:39:20;8.70;99.90
57088;DHT22;42965;52.846;6.614;2023-03-14T06:41:52;8.80;99.90
57088;DHT22;42965;52.846;6.614;2023-03-14T06:44:19;8.80;99.90
57088;DHT22;42965;52.846;6.614;2023-03-14T06:46:46;8.70;99.90
57088;DHT22;42965;52.846;6.614;2023-03-14T06:49:13;8.80;99.90
57088;DHT22;42965;52.846;6.614;2023-03-14T06:51:39;8.80;99.90
57088;DHT22;42965;52.846;6.614;2023-03-14T06:54:09;8.80;99.90
57088;DHT22;42965;52.846;6.614;2023-03-14T06:56:36;8.80;99.90
57088;DHT22;42965;52.846;6.614;2023-03-14T06:59:08;8.80;99.90
57088;DHT22;42965;52.846;6.614;2023-03-14T07:01:36;8.80;99.90
57088;DHT22;42965;52.846;6.614;2023-03-14T07:04:09;8.70;99.90
57088;DHT22;42965;52.846;6.614;2023-03-14T07:06:37;8.80;99.90
57088;DHT22;42965;52.846;6.614;2023-03-14T07:09:05;8.70;99.90
57088;DHT22;42965;52.846;6.614;2023-03-14T07:11:34;8.80;99.90
57088;DHT22;42965;52.846;6.614;2023-03-14T07:14:02;8.70;99.90
57088;DHT22;42965;52.846;6.614;2023-03-14T07:16:28;8.70;99.90
57088;DHT22;42965;52.846;6.614;2023-03-14T07:18:57;8.80;99.90
57088;DHT22;42965;52.846;6.614;2023-03-14T07:21:27;8.70;99.90
57088;DHT22;42965;52.846;6.614;2023-03-14T07:23:54;8.60;99.90
57088;DHT22;42965;52.846;6.614;2023-03-14T07:26:21;8.50;99.90
57088;DHT22;42965;52.846;6.614;2023-03-14T07:28:52;8.40;99.90
57088;DHT22;42965;52.846;6.614;2023-03-14T07:31:20;8.30;99.90
57088;DHT22;42965;52.846;6.614;2023-03-14T07:33:46;8.30;99.90
57088;DHT22;42965;52.846;6.614;2023-03-14T07:36:13;7.70;99.90
57088;DHT22;42965;52.846;6.614;2023-03-14T07:38:43;7.40;99.90
57088;DHT22;42965;52.846;6.614;2023-03-14T07:41:19;7.10;99.90
57088;DHT22;42965;52.846;6.614;2023-03-14T07:44:06;7.00;99.90
57088;DHT22;42965;52.846;6.614;2023-03-14T07:46:33;6.90;99.90
57088;DHT22;42965;52.846;6.614;2023-03-14T07:49:00;6.70;99.90
57088;DHT22;42965;52.846;6.614;2023-03-14T07:51:26;6.40;99.90
57088;DHT22;42965;52.846;6.614;2023-03-14T07:53:53;6.10;99.90
57088;DHT22;42965;52.846;6.614;2023-03-14T07:56:19;6.00;99.90
57088;DHT22;42965;52.846;6.614;2023-03-14T07:58:46;5.90;99.90
57088;DHT22;42965;52.846;6.614;2023-03-14T08:01:12;5.80;99.90
57088;DHT22;42965;52.846;6.614;2023-03-14T08:03:39;5.70;99.90
57088;DHT22;42965;52.846;6.614;2023-03-14T08:06:06;5.50;99.90
57088;DHT22;42965;52.846;6.614;2023-03-14T08:08:32;5.40;99.90
57088;DHT22;42965;52.846;6.614;2023-03-14T08:11:04;5.40;99.90
57088;DHT22;42965;52.846;6.614;2023-03-14T08:13:31;5.20;99.90
57088;DHT22;42965;52.846;6.614;2023-03-14T08:15:58;5.10;99.90
57088;DHT22;42965;52.846;6.614;2023-03-14T08:18:24;5.00;99.90
57088;DHT22;42965;52.846;6.614;2023-03-14T08:20:52;5.10;99.90
57088;DHT22;42965;52.846;6.614;2023-03-14T08:23:18;5.00;99.90
57088;DHT22;42965;52.846;6.614;2023-03-14T08:25:44;5.10;99.90
57088;DHT22;42965;52.846;6.614;2023-03-14T08:28:13;5.00;99.90
57088;DHT22;42965;52.846;6.614;2023-03-14T08:30:39;5.10;99.90
57088;DHT22;42965;52.846;6.614;2023-03-14T08:33:11;5.10;99.90
57088;DHT22;42965;52.846;6.614;2023-03-14T08:35:38;5.10;99.90
57088;DHT22;42965;52.846;6.614;2023-03-14T08:38:04;5.20;99.90
57088;DHT22;42965;52.846;6.614;2023-03-14T08:40:31;5.20;99.90
57088;DHT22;42965;52.846;6.614;2023-03-14T08:42:57;5.20;99.90
57088;DHT22;42965;52.846;6.614;2023-03-14T08:45:24;5.20;99.90
57088;DHT22;42965;52.846;6.614;2023-03-14T08:47:51;5.20;99.90
57088;DHT22;42965;52.846;6.614;2023-03-14T08:50:18;5.20;99.90
57088;DHT22;42965;52.846;6.614;2023-03-14T08:52:45;5.20;99.90
57088;DHT22;42965;52.846;6.614;2023-03-14T08:55:11;5.30;99.90
57088;DHT22;42965;52.846;6.614;2023-03-14T08:57:41;5.40;99.90
57088;DHT22;42965;52.846;6.614;2023-03-14T09:00:10;5.40;99.90
57088;DHT22;42965;52.846;6.614;2023-03-14T09:02:39;5.40;99.90
57088;DHT22;42965;52.846;6.614;2023-03-14T09:05:06;5.40;99.90
57088;DHT22;42965;52.846;6.614;2023-03-14T09:07:32;5.40;99.90
57088;DHT22;42965;52.846;6.614;2023-03-14T09:09:58;5.40;99.90
57088;DHT22;42965;52.846;6.614;2023-03-14T09:12:25;5.50;99.90
57088;DHT22;42965;52.846;6.614;2023-03-14T09:14:52;5.60;99.90
57088;DHT22;42965;52.846;6.614;2023-03-14T09:17:18;5.60;99.90
57088;DHT22;42965;52.846;6.614;2023-03-14T09:19:44;5.70;99.90
57088;DHT22;42965;52.846;6.614;2023-03-14T09:22:10;5.80;99.90
57088;DHT22;42965;52.846;6.614;2023-03-14T09:24:37;6.00;99.90
57088;DHT22;42965;52.846;6.614;2023-03-14T09:27:03;5.90;99.90
57088;DHT22;42965;52.846;6.614;2023-03-14T09:29:31;6.10;99.90
57088;DHT22;42965;52.846;6.614;2023-03-14T09:31:59;6.10;99.90
57088;DHT22;42965;52.846;6.614;2023-03-14T09:34:26;6.20;99.90
57088;DHT22;42965;52.846;6.614;2023-03-14T09:36:52;6.40;99.90
57088;DHT22;42965;52.846;6.614;2023-03-14T09:39:19;6.70;99.90
57088;DHT22;42965;52.846;6.614;2023-03-14T09:41:53;6.90;99.90
57088;DHT22;42965;52.846;6.614;2023-03-14T09:44:27;7.10;99.90
57088;DHT22;42965;52.846;6.614;2023-03-14T09:46:58;7.00;99.90
57088;DHT22;42965;52.846;6.614;2023-03-14T09:52:32;6.80;99.90
57088;DHT22;42965;52.846;6.614;2023-03-14T09:55:03;6.80;99.90
57088;DHT22;42965;52.846;6.614;2023-03-14T09:57:36;6.90;99.90
57088;DHT22;42965;52.846;6.614;2023-03-14T10:00:16;7.20;99.90
57088;DHT22;42965;52.846;6.614;2023-03-14T10:02:50;7.30;99.90
57088;DHT22;42965;52.846;6.614;2023-03-14T10:05:20;7.00;99.90
57088;DHT22;42965;52.846;6.614;2023-03-14T10:07:47;7.10;99.90
57088;DHT22;42965;52.846;6.614;2023-03-14T10:10:20;7.00;99.90
57088;DHT22;42965;52.846;6.614;2023-03-14T10:12:55;7.00;99.90
57088;DHT22;42965;52.846;6.614;2023-03-14T10:15:40;6.90;99.90
57088;DHT22;42965;52.846;6.614;2023-03-14T10:18:11;6.80;99.90
57088;DHT22;42965;52.846;6.614;2023-03-14T10:20:46;6.60;99.90
57088;DHT22;42965;52.846;6.614;2023-03-14T10:25:45;6.70;99.90
57088;DHT22;42965;52.846;6.614;2023-03-14T10:28:30;6.60;99.90
57088;DHT22;42965;52.846;6.614;2023-03-14T10:30:57;6.60;99.90
57088;DHT22;42965;52.846;6.614;2023-03-14T10:33:29;6.50;99.90
57088;DHT22;42965;52.846;6.614;2023-03-14T10:36:05;6.40;99.90
57088;DHT22;42965;52.846;6.614;2023-03-14T10:38:36;6.10;99.90
57088;DHT22;42965;52.846;6.614;2023-03-14T10:41:24;6.00;99.90
57088;DHT22;42965;52.846;6.614;2023-03-14T10:43:57;6.10;99.90
57088;DHT22;42965;52.846;6.614;2023-03-14T10:46:25;6.10;99.90
57088;DHT22;42965;52.846;6.614;2023-03-14T10:49:36;6.10;99.90
57088;DHT22;42965;52.846;6.614;2023-03-14T10:54:38;6.00;99.90
57088;DHT22;42965;52.846;6.614;2023-03-14T10:57:05;6.20;99.90
57088;DHT22;42965;52.846;6.614;2023-03-14T10:59:37;6.30;99.90
57088;DHT22;42965;52.846;6.614;2023-03-14T11:07:43;7.30;99.90
57088;DHT22;42965;52.846;6.614;2023-03-14T11:10:20;7.10;99.90
57088;DHT22;42965;52.846;6.614;2023-03-14T11:13:05;6.80;99.90
57088;DHT22;42965;52.846;6.614;2023-03-14T11:21:11;7.40;99.90
57088;DHT22;42965;52.846;6.614;2023-03-14T11:34:54;6.90;99.90
57088;DHT22;42965;52.846;6.614;2023-03-14T11:37:34;7.10;99.90
57088;DHT22;42965;52.846;6.614;2023-03-14T11:42:32;8.30;99.90
57088;DHT22;42965;52.846;6.614;2023-03-14T11:45:02;8.60;99.90
57088;DHT22;42965;52.846;6.614;2023-03-14T11:47:39;8.70;99.90
57088;DHT22;42965;52.846;6.614;2023-03-14T11:50:18;9.10;99.90
57088;DHT22;42965;52.846;6.614;2023-03-14T11:53:53;9.80;99.90
57088;DHT22;42965;52.846;6.614;2023-03-14T11:55:53;9.00;99.90
57088;DHT22;42965;52.846;6.614;2023-03-14T11:58:34;8.40;99.90
57088;DHT22;42965;52.846;6.614;2023-03-14T12:01:09;8.00;99.90
57088;DHT22;42965;52.846;6.614;2023-03-14T12:03:52;8.30;99.90
57088;DHT22;42965;52.846;6.614;2023-03-14T12:06:39;8.80;99.90
57088;DHT22;42965;52.846;6.614;2023-03-14T12:09:08;9.50;99.90
57088;DHT22;42965;52.846;6.614;2023-03-14T12:14:28;10.40;99.90
57088;DHT22;42965;52.846;6.614;2023-03-14T12:17:21;10.00;99.90
57088;DHT22;42965;52.846;6.614;2023-03-14T12:22:42;11.40;99.90
57088;DHT22;42965;52.846;6.614;2023-03-14T12:25:17;11.40;99.90
57088;DHT22;42965;52.846;6.614;2023-03-14T12:30:39;11.10;99.90
57088;DHT22;42965;52.846;6.614;2023-03-14T12:35:48;10.40;99.90
57088;DHT22;42965;52.846;6.614;2023-03-14T12:43:48;11.40;99.90
57088;DHT22;42965;52.846;6.614;2023-03-14T12:49:05;11.30;67.70
57088;DHT22;42965;52.846;6.614;2023-03-14T12:51:41;11.40;68.70
57088;DHT22;42965;52.846;6.614;2023-03-14T12:57:03;10.60;64.40
57088;DHT22;42965;52.846;6.614;2023-03-14T13:08:13;13.10;60.10
57088;DHT22;42965;52.846;6.614;2023-03-14T13:10:28;13.10;56.80
57088;DHT22;42965;52.846;6.614;2023-03-14T13:13:21;13.60;55.10
57088;DHT22;42965;52.846;6.614;2023-03-14T13:15:49;14.10;53.70
57088;DHT22;42965;52.846;6.614;2023-03-14T13:18:36;14.00;54.50
57088;DHT22;42965;52.846;6.614;2023-03-14T13:21:21;14.90;55.00
57088;DHT22;42965;52.846;6.614;2023-03-14T13:24:05;14.30;51.70
57088;DHT22;42965;52.846;6.614;2023-03-14T13:26:35;12.90;51.10
57088;DHT22;42965;52.846;6.614;2023-03-14T13:29:28;13.50;51.40
57088;DHT22;42965;52.846;6.614;2023-03-14T13:32:16;14.40;50.30
57088;DHT22;42965;52.846;6.614;2023-03-14T13:34:43;14.40;48.20
57088;DHT22;42965;52.846;6.614;2023-03-14T13:37:25;14.30;50.40
57088;DHT22;42965;52.846;6.614;2023-03-14T13:39:58;13.10;51.80
57088;DHT22;42965;52.846;6.614;2023-03-14T13:42:24;12.90;52.90
57088;DHT22;42965;52.846;6.614;2023-03-14T13:44:53;12.10;48.20
57088;DHT22;42965;52.846;6.614;2023-03-14T13:47:25;12.50;50.60
57088;DHT22;42965;52.846;6.614;2023-03-14T13:49:52;12.10;48.70
57088;DHT22;42965;52.846;6.614;2023-03-14T13:52:36;11.60;48.90
57088;DHT22;42965;52.846;6.614;2023-03-14T13:55:05;11.60;48.90
57088;DHT22;42965;52.846;6.614;2023-03-14T13:57:49;12.40;49.70
57088;DHT22;42965;52.846;6.614;2023-03-14T14:00:28;12.50;47.30
57088;DHT22;42965;52.846;6.614;2023-03-14T14:03:03;12.60;48.60
57088;DHT22;42965;52.846;6.614;2023-03-14T14:05:31;12.50;50.60
57088;DHT22;42965;52.846;6.614;2023-03-14T14:08:02;11.90;49.70
57088;DHT22;42965;52.846;6.614;2023-03-14T14:10:30;11.20;51.10
57088;DHT22;42965;52.846;6.614;2023-03-14T14:13:03;11.10;51.90
57088;DHT22;42965;52.846;6.614;2023-03-14T14:15:34;11.40;51.60
57088;DHT22;42965;52.846;6.614;2023-03-14T14:18:04;11.20;50.50
57088;DHT22;42965;52.846;6.614;2023-03-14T14:23:14;13.10;50.90
57088;DHT22;42965;52.846;6.614;2023-03-14T14:25:45;13.50;50.80
57088;DHT22;42965;52.846;6.614;2023-03-14T14:30:46;12.80;47.40
57088;DHT22;42965;52.846;6.614;2023-03-14T14:33:24;13.50;48.80
57088;DHT22;42965;52.846;6.614;2023-03-14T14:35:58;12.30;47.80
57088;DHT22;42965;52.846;6.614;2023-03-14T14:38:26;11.90;49.30
57088;DHT22;42965;52.846;6.614;2023-03-14T14:41:00;11.50;50.50
57088;DHT22;42965;52.846;6.614;2023-03-14T14:43:40;10.60;53.60
57088;DHT22;42965;52.846;6.614;2023-03-14T14:46:08;10.10;54.20
57088;DHT22;42965;52.846;6.614;2023-03-14T14:48:38;10.10;55.50
57088;DHT22;42965;52.846;6.614;2023-03-14T14:51:06;10.20;54.00
57088;DHT22;42965;52.846;6.614;2023-03-14T14:53:38;10.20;54.10
57088;DHT22;42965;52.846;6.614;2023-03-14T14:56:25;9.90;54.70
57088;DHT22;42965;52.846;6.614;2023-03-14T14:58:57;9.30;55.90
57088;DHT22;42965;52.846;6.614;2023-03-14T15:01:25;9.10;57.10
57088;DHT22;42965;52.846;6.614;2023-03-14T15:03:57;9.20;57.70
57088;DHT22;42965;52.846;6.614;2023-03-14T15:06:27;8.80;57.60
57088;DHT22;42965;52.846;6.614;2023-03-14T15:08:55;8.80;58.90
57088;DHT22;42965;52.846;6.614;2023-03-14T15:11:24;8.70;60.00
57088;DHT22;42965;52.846;6.614;2023-03-14T15:13:52;8.80;60.80
57088;DHT22;42965;52.846;6.614;2023-03-14T15:16:21;8.90;60.90
57088;DHT22;42965;52.846;6.614;2023-03-14T15:18:53;9.20;60.00
57088;DHT22;42965;52.846;6.614;2023-03-14T15:21:22;9.80;59.70
57088;DHT22;42965;52.846;6.614;2023-03-14T15:23:48;10.90;58.20
57088;DHT22;42965;52.846;6.614;2023-03-14T15:26:23;11.60;56.00
57088;DHT22;42965;52.846;6.614;2023-03-14T15:28:50;11.00;52.80
57088;DHT22;42965;52.846;6.614;2023-03-14T15:31:18;10.20;53.40
57088;DHT22;42965;52.846;6.614;2023-03-14T15:33:45;9.80;54.30
57088;DHT22;42965;52.846;6.614;2023-03-14T15:36:26;9.30;54.20
57088;DHT22;42965;52.846;6.614;2023-03-14T15:38:59;9.10;54.80
57088;DHT22;42965;52.846;6.614;2023-03-14T15:41:28;8.70;54.70
57088;DHT22;42965;52.846;6.614;2023-03-14T15:43:54;8.50;56.20
57088;DHT22;42965;52.846;6.614;2023-03-14T15:46:22;8.30;57.90
57088;DHT22;42965;52.846;6.614;2023-03-14T15:48:49;8.30;57.70
57088;DHT22;42965;52.846;6.614;2023-03-14T15:51:19;8.20;58.90
57088;DHT22;42965;52.846;6.614;2023-03-14T15:53:45;8.00;61.60
57088;DHT22;42965;52.846;6.614;2023-03-14T15:56:18;7.80;63.90
57088;DHT22;42965;52.846;6.614;2023-03-14T15:58:45;7.70;70.40
57088;DHT22;42965;52.846;6.614;2023-03-14T16:01:15;7.70;78.80
57088;DHT22;42965;52.846;6.614;2023-03-14T16:03:44;7.60;83.70
57088;DHT22;42965;52.846;6.614;2023-03-14T16:06:11;7.60;89.50
57088;DHT22;42965;52.846;6.614;2023-03-14T16:08:38;7.30;92.70
57088;DHT22;42965;52.846;6.614;2023-03-14T16:11:04;7.30;95.60
57088;DHT22;42965;52.846;6.614;2023-03-14T16:13:31;7.20;99.10
57088;DHT22;42965;52.846;6.614;2023-03-14T16:16:03;7.20;99.90
57088;DHT22;42965;52.846;6.614;2023-03-14T16:18:32;7.10;99.90
57088;DHT22;42965;52.846;6.614;2023-03-14T16:21:01;7.10;99.90
57088;DHT22;42965;52.846;6.614;2023-03-14T16:23:33;7.20;99.90
57088;DHT22;42965;52.846;6.614;2023-03-14T16:26:04;7.10;99.90
57088;DHT22;42965;52.846;6.614;2023-03-14T16:28:35;7.00;99.90
57088;DHT22;42965;52.846;6.614;2023-03-14T16:31:09;6.80;99.90
57088;DHT22;42965;52.846;6.614;2023-03-14T16:33:41;6.90;99.90
57088;DHT22;42965;52.846;6.614;2023-03-14T16:36:10;6.20;99.90
57088;DHT22;42965;52.846;6.614;2023-03-14T16:38:40;6.20;99.90
57088;DHT22;42965;52.846;6.614;2023-03-14T16:41:10;6.10;99.90
57088;DHT22;42965;52.846;6.614;2023-03-14T16:43:37;5.70;99.90
57088;DHT22;42965;52.846;6.614;2023-03-14T16:46:05;5.50;99.90
57088;DHT22;42965;52.846;6.614;2023-03-14T16:48:32;5.30;99.90
57088;DHT22;42965;52.846;6.614;2023-03-14T16:50:59;5.20;99.90
57088;DHT22;42965;52.846;6.614;2023-03-14T16:53:26;5.10;99.90
57088;DHT22;42965;52.846;6.614;2023-03-14T16:55:55;5.10;99.90
57088;DHT22;42965;52.846;6.614;2023-03-14T16:58:31;5.00;99.90
57088;DHT22;42965;52.846;6.614;2023-03-14T17:00:58;5.00;99.90
57088;DHT22;42965;52.846;6.614;2023-03-14T17:03:47;5.00;99.90
57088;DHT22;42965;52.846;6.614;2023-03-14T17:06:26;5.10;99.90
57088;DHT22;42965;52.846;6.614;2023-03-14T17:08:53;5.00;99.90
57088;DHT22;42965;52.846;6.614;2023-03-14T17:11:22;5.00;99.90
57088;DHT22;42965;52.846;6.614;2023-03-14T17:13:49;5.00;99.90
57088;DHT22;42965;52.846;6.614;2023-03-14T17:16:16;5.00;99.90
57088;DHT22;42965;52.846;6.614;2023-03-14T17:18:42;4.90;99.90
57088;DHT22;42965;52.846;6.614;2023-03-14T17:21:09;4.90;99.90
57088;DHT22;42965;52.846;6.614;2023-03-14T17:23:35;4.90;99.90
57088;DHT22;42965;52.846;6.614;2023-03-14T17:26:02;4.70;99.90
57088;DHT22;42965;52.846;6.614;2023-03-14T17:28:28;4.70;99.90